Time;durP1;ratioP1;P1;durP2;ratioP2;P2;SDS_P1;SDS_P2;PMS_P1;PMS_P2;Temp;Humidity;BMP_temperature;BMP_pressure;BME280_temperature;BME280_humidity;BME280_pressure;Samples;Min_cycle;Max_cycle;Signal;HPM_P1;HPM_P2
2023/08/25 00:01:13;;;;;;;3.85;2.95;;;25.20;71.40;25.90;100168.00;;;;5023923;28;20541;-52
2023/08/25 00:03:39;;;;;;;3.15;2.80;;;25.10;72.00;25.90;100219.00;;;;5027800;28;20310;-52
2023/08/25 00:06:05;;;;;;;4.75;2.90;;;25.00;72.00;25.80;100221.00;;;;5023455;28;20183;-52
2023/08/25 00:08:30;;;;;;;3.30;2.75;;;25.10;72.10;25.80;100211.00;;;;5031189;28;20644;-53
2023/08/25 00:10:56;;;;;;;5.75;3.00;;;25.10;72.90;25.90;100214.00;;;;5031075;28;20258;-51
2023/08/25 00:13:22;;;;;;;3.30;3.00;;;25.10;72.50;25.90;100225.00;;;;5031256;28;20210;-52
2023/08/25 00:15:49;;;;;;;4.93;2.90;;;25.10;72.60;25.90;100214.00;;;;5031041;28;20190;-52
2023/08/25 00:18:14;;;;;;;3.72;2.88;;;25.10;72.00;25.80;100203.00;;;;5013223;28;20227;-51
2023/08/25 00:20:41;;;;;;;3.10;2.80;;;25.00;72.40;25.80;100192.00;;;;5029337;28;20182;-51
2023/08/25 00:23:08;;;;;;;3.75;2.90;;;25.00;72.40;25.80;100197.00;;;;5023417;28;20205;-51
2023/08/25 00:25:34;;;;;;;2.80;2.60;;;25.00;72.40;25.80;100197.00;;;;5031006;28;20175;-52
2023/08/25 00:27:59;;;;;;;3.10;2.80;;;25.00;72.30;25.80;100197.00;;;;5030894;28;20267;-52
2023/08/25 00:30:25;;;;;;;3.85;2.95;;;25.00;72.60;25.80;100131.00;;;;5030391;28;20672;-52
2023/08/25 00:32:51;;;;;;;3.30;2.55;;;25.00;72.40;25.80;100190.00;;;;5030694;28;20434;-52
2023/08/25 00:35:17;;;;;;;3.08;2.78;;;25.00;72.20;25.80;100191.00;;;;5030838;28;20217;-52
2023/08/25 00:37:42;;;;;;;4.13;3.05;;;25.00;72.40;25.80;100171.00;;;;5030656;28;20705;-51
2023/08/25 00:40:10;;;;;;;3.17;2.80;;;25.00;72.10;25.80;100169.00;;;;5026373;28;20543;-51
2023/08/25 00:42:36;;;;;;;4.80;2.40;;;25.00;72.00;25.70;100164.00;;;;5026749;28;20194;-52
2023/08/25 00:45:02;;;;;;;5.70;3.00;;;25.00;72.00;25.70;100160.00;;;;5030269;28;20209;-52
2023/08/25 00:47:28;;;;;;;4.70;3.00;;;25.00;72.90;25.80;100165.00;;;;5030599;28;20193;-53
2023/08/25 00:49:53;;;;;;;4.40;2.90;;;25.00;72.80;25.70;100163.00;;;;4996187;28;20195;-51
2023/08/25 00:52:19;;;;;;;3.90;2.70;;;24.80;72.70;25.70;100166.00;;;;5012498;28;20675;-51
2023/08/25 00:54:45;;;;;;;4.22;2.58;;;24.80;73.00;25.70;100146.00;;;;5030057;28;20183;-52
2023/08/25 00:57:11;;;;;;;5.15;3.05;;;24.90;72.60;25.70;100162.00;;;;5004493;28;20179;-52
2023/08/25 00:59:36;;;;;;;3.72;2.72;;;24.90;72.60;25.70;100165.00;;;;5012284;28;20205;-51
2023/08/25 01:02:03;;;;;;;4.53;2.72;;;24.80;72.40;25.70;100169.00;;;;5018692;28;20179;-51
2023/08/25 01:04:29;;;;;;;3.10;2.58;;;24.80;72.90;25.50;100163.00;;;;5030061;28;20228;-52
2023/08/25 01:06:54;;;;;;;4.03;3.08;;;24.70;72.50;25.70;100175.00;;;;5012300;28;20229;-51
2023/08/25 01:09:20;;;;;;;3.22;2.60;;;24.80;73.00;25.60;100173.00;;;;5029759;28;20230;-52
2023/08/25 01:12:08;;;;;;;3.33;2.60;;;24.80;72.50;25.60;100181.00;;;;5012121;28;20197;-51
2023/08/25 01:14:53;;;;;;;3.28;2.60;;;24.80;72.00;25.60;100167.00;;;;5007443;28;20218;-52
2023/08/25 01:18:04;;;;;;;2.88;2.60;;;24.80;72.30;25.60;100184.00;;;;5024971;28;20274;-52
2023/08/25 01:20:29;;;;;;;2.75;2.47;;;24.80;71.80;25.50;100182.00;;;;5024869;28;20415;-51
2023/08/25 01:23:32;;;;;;;3.15;2.63;;;24.80;72.10;25.50;100178.00;;;;5010602;28;20210;-52
2023/08/25 01:25:58;;;;;;;3.35;2.55;;;24.80;71.80;25.50;100183.00;;;;5015945;28;20178;-52
2023/08/25 01:28:24;;;;;;;3.90;2.80;;;24.80;71.50;25.50;100172.00;;;;5027517;28;20178;-52
2023/08/25 01:30:54;;;;;;;2.78;2.50;;;24.80;71.50;25.50;100167.00;;;;5004961;28;20183;-51
2023/08/25 01:33:21;;;;;;;4.45;2.80;;;24.80;71.50;25.50;100172.00;;;;5010457;28;20198;-52
2023/08/25 01:36:12;;;;;;;3.63;2.97;;;24.70;71.30;25.50;100175.00;;;;5029959;28;20181;-53
2023/08/25 01:38:52;;;;;;;2.60;2.40;;;24.70;71.40;25.50;100173.00;;;;5030167;28;20731;-51
2023/08/25 01:41:32;;;;;;;3.33;2.60;;;24.70;71.30;25.50;100168.00;;;;5029912;28;20236;-53
2023/08/25 01:44:00;;;;;;;2.85;2.45;;;24.70;71.30;25.50;100172.00;;;;5049218;28;20185;-56
2023/08/25 01:46:26;;;;;;;2.88;2.50;;;24.70;71.20;25.50;100176.00;;;;5000376;28;20189;-52
2023/08/25 01:48:53;;;;;;;2.65;2.45;;;24.70;71.20;25.50;100170.00;;;;5008675;28;20199;-52
2023/08/25 01:51:19;;;;;;;3.10;2.80;;;24.80;71.40;25.50;100172.00;;;;5029213;28;20175;-52
2023/08/25 01:53:47;;;;;;;3.40;2.60;;;24.70;71.30;25.50;100161.00;;;;5011148;28;20195;-52
2023/08/25 01:56:12;;;;;;;3.80;2.60;;;24.70;71.30;25.50;100167.00;;;;5011652;28;20178;-51
2023/08/25 01:58:39;;;;;;;4.60;2.60;;;24.70;71.10;25.50;100157.00;;;;5028867;28;20199;-52
2023/08/25 02:01:04;;;;;;;3.15;2.42;;;24.70;71.20;25.50;100157.00;;;;5022388;28;20257;-52
2023/08/25 02:03:30;;;;;;;3.00;2.70;;;24.70;71.30;25.50;100147.00;;;;5009549;28;20184;-52
2023/08/25 02:05:56;;;;;;;3.58;2.90;;;24.70;71.70;25.50;100147.00;;;;5028109;28;20183;-52
2023/08/25 02:08:22;;;;;;;2.90;2.70;;;24.70;72.00;25.50;100150.00;;;;5029016;28;20175;-52
2023/08/25 02:10:47;;;;;;;3.33;2.50;;;24.70;72.30;25.50;100140.00;;;;5028905;28;20190;-52
2023/08/25 02:13:13;;;;;;;3.03;2.53;;;24.70;71.90;25.50;100137.00;;;;5011161;28;20202;-52
2023/08/25 02:15:48;;;;;;;4.15;2.85;;;24.70;71.70;25.40;100139.00;;;;5028646;28;20649;-53
2023/08/25 02:18:13;;;;;;;3.10;2.60;;;24.60;72.30;25.20;100134.00;;;;5028419;28;20209;-51
2023/08/25 02:20:39;;;;;;;3.95;3.05;;;24.70;71.90;25.40;100135.00;;;;5026573;28;20214;-51
2023/08/25 02:23:06;;;;;;;4.32;3.00;;;24.70;71.70;25.40;100136.00;;;;5020699;28;20273;-51
2023/08/25 02:25:32;;;;;;;4.82;3.05;;;24.70;72.20;25.40;100129.00;;;;5028868;28;20249;-52
2023/08/25 02:27:57;;;;;;;3.40;2.60;;;24.70;72.30;25.40;100119.00;;;;5020464;28;20183;-53
2023/08/25 02:30:23;;;;;;;3.85;3.20;;;24.60;71.80;25.40;100120.00;;;;5028350;28;20210;-52
2023/08/25 02:32:49;;;;;;;4.85;2.70;;;24.60;71.90;25.30;100104.00;;;;5028308;28;20203;-52
2023/08/25 02:35:15;;;;;;;3.45;2.53;;;24.60;72.40;25.30;100110.00;;;;5028547;28;20182;-52
2023/08/25 02:37:58;;;;;;;2.92;2.60;;;24.60;71.90;25.30;100111.00;;;;5027785;28;20179;-51
2023/08/25 02:40:24;;;;;;;3.80;2.80;;;24.60;71.60;25.30;100105.00;;;;5028381;28;20294;-51
2023/08/25 02:42:50;;;;;;;4.53;2.90;;;24.70;71.80;25.30;100096.00;;;;5028114;28;20183;-52
2023/08/25 02:45:16;;;;;;;2.92;2.72;;;24.60;72.30;25.30;100088.00;;;;5028513;28;20245;-52
2023/08/25 02:47:41;;;;;;;3.47;2.90;;;24.60;72.10;25.20;100091.00;;;;5028153;28;20188;-52
2023/08/25 02:50:07;;;;;;;3.58;2.80;;;24.50;71.90;25.20;100088.00;;;;5027978;28;20211;-52
2023/08/25 02:52:33;;;;;;;3.40;2.95;;;24.50;72.10;25.20;100076.00;;;;5010190;28;20193;-51
2023/08/25 02:54:59;;;;;;;2.90;2.55;;;24.40;72.60;25.20;100084.00;;;;5028304;28;20183;-52
2023/08/25 02:57:24;;;;;;;3.38;2.78;;;24.50;72.00;25.10;100080.00;;;;5028799;28;20789;-52
2023/08/25 02:59:50;;;;;;;4.22;3.03;;;24.50;71.90;25.20;100067.00;;;;5027976;28;20202;-52
2023/08/25 03:02:16;;;;;;;3.28;2.70;;;24.50;71.50;25.10;100065.00;;;;5000258;28;20191;-52
2023/08/25 03:04:42;;;;;;;5.20;2.88;;;24.50;71.50;25.10;100057.00;;;;5029353;28;20194;-52
2023/08/25 03:07:07;;;;;;;3.22;2.80;;;24.50;72.10;25.10;100050.00;;;;5029631;28;20552;-53
2023/08/25 03:09:33;;;;;;;3.38;2.65;;;24.50;71.50;25.10;100046.00;;;;5029497;28;20205;-52
2023/08/25 03:11:59;;;;;;;3.47;2.60;;;24.50;72.30;25.10;100046.00;;;;5029340;28;20273;-52
2023/08/25 03:14:28;;;;;;;2.80;2.50;;;24.50;71.50;25.10;100029.00;;;;5029788;28;20203;-53
2023/08/25 03:16:53;;;;;;;3.25;2.95;;;24.40;71.50;25.10;100035.00;;;;5029478;28;20712;-53
2023/08/25 03:19:19;;;;;;;3.88;2.60;;;24.40;71.50;25.00;100042.00;;;;5029163;28;20199;-51
2023/08/25 03:21:45;;;;;;;3.28;2.70;;;24.40;71.40;25.00;100035.00;;;;5019293;28;20176;-52
2023/08/25 03:24:10;;;;;;;3.47;2.63;;;24.40;71.40;25.00;100028.00;;;;5029190;28;20182;-52
2023/08/25 03:26:37;;;;;;;3.20;2.80;;;24.40;71.90;24.90;100013.00;;;;5029235;28;20183;-51
2023/08/25 03:29:03;;;;;;;3.42;2.83;;;24.30;71.90;24.90;100019.00;;;;5028731;28;20206;-51
2023/08/25 03:31:28;;;;;;;4.28;2.78;;;24.30;72.40;24.90;100016.00;;;;5028787;28;20187;-51
2023/08/25 03:33:54;;;;;;;4.88;2.88;;;24.40;72.10;24.90;100024.00;;;;5028781;28;20584;-52
2023/08/25 03:36:20;;;;;;;3.58;2.95;;;24.30;71.80;24.90;100011.00;;;;5013698;28;20183;-51
2023/08/25 03:38:45;;;;;;;4.45;2.88;;;24.30;71.90;24.90;100014.00;;;;5052418;28;20210;-53
2023/08/25 03:41:11;;;;;;;4.05;2.70;;;24.30;72.00;24.90;100019.00;;;;5033182;28;20175;-51
2023/08/25 03:43:37;;;;;;;3.67;2.80;;;24.30;71.90;24.90;100026.00;;;;5029731;28;20595;-51
2023/08/25 03:46:03;;;;;;;3.38;3.08;;;24.30;72.10;25.00;100019.00;;;;5026416;28;20248;-57
2023/08/25 03:48:29;;;;;;;5.00;3.42;;;24.30;72.20;25.00;100016.00;;;;5019150;28;20187;-52
2023/08/25 03:50:55;;;;;;;3.00;2.70;;;24.30;72.20;25.00;100007.00;;;;5023980;28;20737;-52
2023/08/25 03:53:20;;;;;;;2.95;2.60;;;24.30;72.10;25.00;100014.00;;;;5047792;28;20234;-52
2023/08/25 03:55:46;;;;;;;3.55;2.70;;;24.30;71.80;24.90;100013.00;;;;5046368;28;20190;-51
2023/08/25 03:58:13;;;;;;;4.68;2.90;;;24.20;72.20;24.90;100016.00;;;;5032903;28;20730;-51
2023/08/25 04:00:39;;;;;;;3.83;2.95;;;24.20;71.70;24.90;100015.00;;;;5028930;28;20224;-53
2023/08/25 04:03:06;;;;;;;2.78;2.40;;;24.30;72.00;24.90;100011.00;;;;5028582;28;20326;-51
2023/08/25 04:05:32;;;;;;;3.05;2.72;;;24.30;71.40;24.90;100006.00;;;;5032153;28;20175;-51
2023/08/25 04:07:58;;;;;;;3.58;2.53;;;24.20;71.70;24.90;100000.00;;;;5031742;28;20750;-51
2023/08/25 04:10:24;;;;;;;3.72;2.92;;;24.20;71.70;24.90;100010.00;;;;5031843;28;20286;-52
2023/08/25 04:12:50;;;;;;;3.28;2.60;;;24.20;72.20;24.90;100007.00;;;;5032232;28;20203;-52
2023/08/25 04:15:15;;;;;;;3.70;2.65;;;24.20;72.10;24.80;99994.00;;;;5021289;28;20186;-52
2023/08/25 04:17:41;;;;;;;3.55;3.03;;;24.20;71.80;24.80;100007.00;;;;5019102;28;20276;-51
2023/08/25 04:20:09;;;;;;;3.72;2.70;;;24.20;72.70;24.80;100008.00;;;;5021584;28;20208;-51
2023/08/25 04:22:35;;;;;;;3.50;2.88;;;24.10;72.40;24.80;100011.00;;;;5028017;28;20178;-53
2023/08/25 04:25:01;;;;;;;3.80;2.92;;;24.30;72.40;24.80;100009.00;;;;5031480;28;20241;-52
2023/08/25 04:27:26;;;;;;;5.57;4.00;;;24.20;72.40;24.80;99999.00;;;;5031569;28;20182;-52
2023/08/25 04:29:52;;;;;;;4.07;2.80;;;24.20;73.40;24.80;100005.00;;;;5031504;28;20195;-52
2023/08/25 04:32:18;;;;;;;6.28;4.20;;;24.10;72.10;24.80;100010.00;;;;5031250;28;20175;-52
2023/08/25 04:34:44;;;;;;;3.58;3.25;;;24.20;72.60;24.80;100019.00;;;;5031450;28;20244;-55
2023/08/25 04:37:10;;;;;;;4.50;3.20;;;24.10;72.60;24.90;100027.00;;;;5023376;28;20172;-53
2023/08/25 04:39:36;;;;;;;4.60;3.00;;;24.10;72.70;24.80;100014.00;;;;5031461;28;20199;-52
2023/08/25 04:42:01;;;;;;;3.28;2.83;;;24.10;72.50;24.80;100023.00;;;;5031157;28;20183;-53
2023/08/25 04:44:27;;;;;;;4.22;2.80;;;24.10;72.20;24.80;100022.00;;;;5031317;28;20185;-52
2023/08/25 04:46:53;;;;;;;4.68;3.13;;;24.10;72.10;24.80;100026.00;;;;5030900;28;20619;-52
2023/08/25 04:49:19;;;;;;;4.65;2.90;;;24.20;72.30;24.80;100014.00;;;;5030970;28;20703;-52
2023/08/25 04:51:44;;;;;;;4.78;2.58;;;24.10;72.50;24.80;100007.00;;;;5031369;28;20179;-53
2023/08/25 04:54:10;;;;;;;5.65;3.28;;;24.20;72.30;24.80;99990.00;;;;5013513;28;20581;-52
2023/08/25 04:56:36;;;;;;;4.57;3.10;;;24.10;72.10;24.80;100001.00;;;;5031354;28;20281;-52
2023/08/25 04:59:01;;;;;;;5.22;3.08;;;24.10;72.10;24.80;100004.00;;;;5030922;28;20202;-51
2023/08/25 05:01:28;;;;;;;4.50;2.90;;;24.10;72.70;24.80;100002.00;;;;5024813;28;20191;-52
2023/08/25 05:03:55;;;;;;;3.25;2.80;;;24.10;72.10;24.80;100010.00;;;;5031356;28;20179;-51
2023/08/25 05:06:21;;;;;;;4.50;3.00;;;24.10;72.70;24.80;100015.00;;;;5031184;28;20183;-51
2023/08/25 05:08:47;;;;;;;4.15;3.00;;;24.10;73.80;24.80;100013.00;;;;5030622;28;20195;-52
2023/08/25 05:11:13;;;;;;;4.45;3.00;;;24.10;72.90;24.80;100011.00;;;;5029125;28;20174;-51
2023/08/25 05:13:39;;;;;;;5.78;3.17;;;24.10;73.00;24.80;100018.00;;;;5030315;28;20209;-52
2023/08/25 05:16:05;;;;;;;5.03;3.33;;;24.10;72.40;24.80;100018.00;;;;5030611;28;20182;-52
2023/08/25 05:18:32;;;;;;;3.63;3.10;;;23.80;73.70;24.80;100016.00;;;;5025641;28;20207;-52
2023/08/25 05:21:01;;;;;;;6.00;3.15;;;23.90;73.60;24.80;100021.00;;;;5008548;28;20176;-52
2023/08/25 05:23:27;;;;;;;3.78;2.90;;;24.00;73.60;24.80;100021.00;;;;5030652;28;20175;-53
2023/08/25 05:25:53;;;;;;;4.40;3.35;;;23.90;72.90;24.70;100027.00;;;;5030210;28;20679;-53
2023/08/25 05:28:19;;;;;;;3.30;2.95;;;24.00;73.70;24.70;100019.00;;;;5019969;28;20269;-53
2023/08/25 05:30:50;;;;;;;3.83;3.08;;;24.10;72.50;24.70;100027.00;;;;5013891;28;20254;-53
2023/08/25 05:33:16;;;;;;;4.10;2.90;;;24.10;73.10;24.70;100032.00;;;;5014639;28;20211;-52
2023/08/25 05:35:41;;;;;;;3.85;2.70;;;24.10;72.80;24.70;100031.00;;;;5026000;28;20198;-53
2023/08/25 05:38:07;;;;;;;5.15;3.38;;;24.10;71.70;24.70;100028.00;;;;5030211;28;20195;-51
2023/08/25 05:40:33;;;;;;;3.08;2.60;;;24.20;72.90;24.70;100042.00;;;;5029874;28;20198;-52
2023/08/25 05:42:59;;;;;;;3.30;2.60;;;24.10;72.00;24.70;100040.00;;;;5030179;28;20182;-51
2023/08/25 05:45:24;;;;;;;3.63;2.65;;;24.00;72.10;24.70;100030.00;;;;5047667;28;20183;-50
2023/08/25 05:47:50;;;;;;;4.78;3.20;;;24.00;72.10;24.70;100020.00;;;;5036324;28;20190;-51
2023/08/25 05:50:16;;;;;;;3.42;3.00;;;24.10;73.10;24.70;100016.00;;;;5030502;28;20199;-52
2023/08/25 05:52:44;;;;;;;4.50;3.13;;;24.10;72.80;24.80;100022.00;;;;5030427;28;20186;-51
2023/08/25 05:55:12;;;;;;;3.70;3.00;;;24.10;73.10;24.70;100022.00;;;;5030218;28;20245;-51
2023/08/25 05:57:37;;;;;;;4.28;3.10;;;24.10;72.70;24.80;100005.00;;;;5030764;28;20175;-53
2023/08/25 06:00:05;;;;;;;3.25;2.95;;;24.10;73.30;24.70;99997.00;;;;5035122;28;20222;-51
2023/08/25 06:02:32;;;;;;;3.15;2.70;;;24.10;72.80;24.70;99987.00;;;;5030735;28;20187;-51
2023/08/25 06:04:58;;;;;;;3.20;2.83;;;24.00;72.50;24.50;99975.00;;;;5032525;28;20174;-51
2023/08/25 06:07:24;;;;;;;4.32;3.10;;;24.00;72.50;24.70;99979.00;;;;5029626;28;20559;-52
2023/08/25 06:09:49;;;;;;;4.68;3.50;;;24.00;73.50;24.70;99978.00;;;;5022553;28;20198;-51
2023/08/25 06:12:15;;;;;;;3.10;2.80;;;24.10;73.10;24.70;99968.00;;;;5029149;28;20175;-52
2023/08/25 06:14:41;;;;;;;3.53;2.90;;;24.10;72.60;24.70;99959.00;;;;5029483;28;20447;-52
2023/08/25 06:17:07;;;;;;;4.13;2.83;;;23.90;72.60;24.60;99947.00;;;;5028890;28;20175;-52
2023/08/25 06:19:33;;;;;;;5.35;2.97;;;24.00;72.70;24.60;99964.00;;;;5029243;28;20194;-53
2023/08/25 06:21:59;;;;;;;3.30;3.00;;;24.00;72.40;24.60;99968.00;;;;5024653;28;20648;-52
2023/08/25 06:24:25;;;;;;;3.35;2.85;;;24.10;72.50;24.70;99954.00;;;;5007148;28;20190;-53
2023/08/25 06:26:52;;;;;;;4.10;2.95;;;24.10;73.00;24.70;99957.00;;;;5010530;28;20250;-51
2023/08/25 06:29:17;;;;;;;3.08;2.85;;;24.00;73.60;24.70;99962.00;;;;5028617;28;20207;-52
2023/08/25 06:31:43;;;;;;;3.40;3.10;;;24.00;73.60;24.70;99968.00;;;;4994888;28;20179;-52
2023/08/25 06:34:09;;;;;;;3.92;3.30;;;23.90;74.40;24.70;99982.00;;;;5021604;28;20206;-52
2023/08/25 06:36:35;;;;;;;5.03;3.40;;;23.90;75.30;24.70;99996.00;;;;5028902;28;20190;-52
2023/08/25 06:39:00;;;;;;;5.25;3.22;;;23.80;74.70;24.70;99993.00;;;;5028878;28;20576;-52
2023/08/25 06:41:26;;;;;;;6.00;3.30;;;23.90;74.90;24.70;100006.00;;;;5011391;28;20175;-52
2023/08/25 06:43:53;;;;;;;3.47;3.10;;;23.90;74.70;24.60;100020.00;;;;5029244;28;20209;-52
2023/08/25 06:46:19;;;;;;;3.35;2.95;;;23.90;74.30;24.60;100025.00;;;;5026703;28;20183;-52
2023/08/25 06:48:45;;;;;;;4.93;3.10;;;23.90;73.90;24.60;100012.00;;;;5026349;28;20194;-51
2023/08/25 06:51:11;;;;;;;3.65;2.90;;;23.90;73.90;24.60;100031.00;;;;5011099;28;20460;-52
2023/08/25 06:53:36;;;;;;;5.22;3.15;;;23.90;73.70;24.60;100019.00;;;;5029032;28;20688;-53
2023/08/25 06:56:03;;;;;;;3.97;2.97;;;23.80;73.60;24.70;100019.00;;;;5028763;28;20652;-53
2023/08/25 06:58:28;;;;;;;4.35;2.90;;;23.90;73.70;24.70;100008.00;;;;5028086;28;20699;-52
2023/08/25 07:00:54;;;;;;;5.55;2.78;;;23.90;74.00;24.60;100008.00;;;;5005052;28;20188;-52
2023/08/25 07:03:20;;;;;;;5.15;3.05;;;23.80;73.60;24.60;100011.00;;;;5023021;28;20186;-52
2023/08/25 07:05:46;;;;;;;4.00;2.90;;;23.90;74.10;24.60;99985.00;;;;5028300;28;20804;-52
2023/08/25 07:08:12;;;;;;;3.08;2.85;;;23.90;74.20;24.60;99959.00;;;;5028613;28;20323;-52
2023/08/25 07:10:38;;;;;;;3.80;2.90;;;23.90;73.90;24.60;99946.00;;;;5028671;28;20205;-52
2023/08/25 07:13:04;;;;;;;3.38;2.97;;;23.90;73.90;24.60;99957.00;;;;5010758;28;20211;-53
2023/08/25 07:15:30;;;;;;;3.25;2.95;;;23.90;74.00;24.70;99959.00;;;;5023072;28;20749;-52
2023/08/25 07:17:56;;;;;;;3.70;2.80;;;23.90;74.00;24.70;99958.00;;;;5029089;28;20274;-52
2023/08/25 07:20:21;;;;;;;4.40;2.95;;;23.90;74.20;24.70;99956.00;;;;5029299;28;20199;-52
2023/08/25 07:22:48;;;;;;;3.90;2.83;;;23.90;74.30;24.70;99985.00;;;;5017443;28;20205;-49
2023/08/25 07:25:14;;;;;;;3.90;2.80;;;23.90;75.00;24.70;100015.00;;;;5031704;28;20171;-52
2023/08/25 07:27:39;;;;;;;5.00;3.03;;;24.00;74.80;24.70;100044.00;;;;5033348;28;20187;-51
2023/08/25 07:30:06;;;;;;;5.57;3.33;;;23.90;74.70;24.70;100074.00;;;;5032714;28;20353;-51
2023/08/25 07:32:32;;;;;;;5.57;2.95;;;24.00;75.40;24.70;100091.00;;;;5032986;28;20190;-51
2023/08/25 07:34:58;;;;;;;5.43;3.03;;;23.90;74.90;24.70;100095.00;;;;5033103;28;20651;-55
2023/08/25 07:37:25;;;;;;;5.22;3.13;;;23.90;74.80;24.70;100094.00;;;;5033223;28;20603;-51
2023/08/25 07:39:52;;;;;;;6.40;3.17;;;24.00;74.80;24.70;100102.00;;;;5032776;28;20199;-51
2023/08/25 07:42:18;;;;;;;4.80;3.03;;;24.00;74.70;24.70;100082.00;;;;5032830;28;20187;-51
2023/08/25 07:44:44;;;;;;;7.05;2.95;;;24.00;74.80;24.70;100089.00;;;;5032906;28;20668;-50
2023/08/25 07:47:10;;;;;;;5.05;3.20;;;24.00;74.50;24.70;100079.00;;;;5032904;28;20191;-52
2023/08/25 07:49:36;;;;;;;4.72;3.05;;;24.00;74.50;24.70;100091.00;;;;5046881;28;20198;-52
2023/08/25 07:52:01;;;;;;;5.72;3.20;;;24.00;74.50;24.70;100079.00;;;;5047093;28;20669;-52
2023/08/25 07:54:27;;;;;;;6.28;3.10;;;24.00;74.50;24.70;100081.00;;;;5034156;28;20252;-52
2023/08/25 07:56:54;;;;;;;11.05;3.40;;;24.00;74.50;24.70;100091.00;;;;5033129;28;20179;-52
2023/08/25 07:59:19;;;;;;;7.47;3.30;;;24.00;75.40;24.80;100097.00;;;;5033274;28;20194;-52
2023/08/25 08:01:45;;;;;;;10.05;3.72;;;24.00;75.70;24.70;100102.00;;;;5010523;28;20579;-51
2023/08/25 08:04:11;;;;;;;6.43;3.70;;;24.00;75.60;24.80;100095.00;;;;5045616;28;20179;-53
2023/08/25 08:06:38;;;;;;;7.75;3.33;;;24.00;75.80;24.80;100094.00;;;;5045955;28;20265;-52
2023/08/25 08:09:06;;;;;;;7.82;3.78;;;24.00;75.80;24.80;100084.00;;;;5032187;28;20669;-53
2023/08/25 08:11:33;;;;;;;7.22;3.50;;;24.00;75.60;24.80;100091.00;;;;5030227;28;20215;-53
2023/08/25 08:13:59;;;;;;;7.07;3.58;;;24.00;75.90;24.80;100083.00;;;;5015538;28;20187;-51
2023/08/25 08:16:26;;;;;;;7.93;3.33;;;24.00;76.00;24.80;100085.00;;;;5020570;28;20184;-51
2023/08/25 08:18:52;;;;;;;7.68;3.83;;;24.00;75.90;24.80;100085.00;;;;5024399;28;20202;-53
2023/08/25 08:21:18;;;;;;;8.85;3.67;;;24.10;75.90;24.80;100130.00;;;;5021502;28;20182;-52
2023/08/25 08:23:44;;;;;;;5.75;3.58;;;24.00;75.80;24.80;100158.00;;;;5031766;28;20194;-52
2023/08/25 08:26:10;;;;;;;5.53;3.63;;;24.00;75.80;24.80;100183.00;;;;5020514;28;20179;-52
2023/08/25 08:28:36;;;;;;;6.95;3.53;;;24.00;76.20;24.80;100145.00;;;;5031862;28;20191;-52
2023/08/25 08:31:05;;;;;;;4.35;3.20;;;24.00;75.90;24.80;100119.00;;;;5023505;28;20175;-51
2023/08/25 08:33:34;;;;;;;5.80;3.30;;;24.00;75.90;24.80;100127.00;;;;5031798;28;20210;-52
2023/08/25 08:36:00;;;;;;;4.90;3.50;;;24.00;75.90;24.80;100150.00;;;;5015530;28;20831;-52
2023/08/25 08:38:26;;;;;;;8.68;3.45;;;24.00;75.90;24.80;100156.00;;;;5015873;28;20179;-52
2023/08/25 08:40:52;;;;;;;6.38;3.60;;;24.00;76.00;24.80;100138.00;;;;5031189;28;20266;-53
2023/08/25 08:43:18;;;;;;;5.57;3.45;;;24.00;75.90;24.80;100098.00;;;;5031262;28;20965;-52
2023/08/25 08:45:45;;;;;;;4.22;3.33;;;24.00;75.80;24.80;100111.00;;;;5030690;28;20594;-52
2023/08/25 08:48:12;;;;;;;5.80;3.33;;;24.00;75.80;24.80;100115.00;;;;5013387;28;20230;-52
2023/08/25 08:50:38;;;;;;;5.28;3.05;;;24.00;75.70;24.80;100079.00;;;;5024831;28;20179;-52
2023/08/25 08:53:04;;;;;;;5.07;3.22;;;24.00;75.70;24.80;100078.00;;;;5013553;28;20205;-53
2023/08/25 08:55:30;;;;;;;6.32;3.25;;;24.00;75.80;24.80;100083.00;;;;5013841;28;20286;-51
2023/08/25 08:57:56;;;;;;;4.00;2.95;;;24.00;75.60;24.80;100084.00;;;;5013509;28;20546;-51
2023/08/25 09:00:22;;;;;;;4.85;3.10;;;23.90;75.40;24.80;100111.00;;;;5031102;28;20194;-53
2023/08/25 09:02:55;;;;;;;6.28;3.28;;;23.90;75.40;24.80;100095.00;;;;5031497;28;20190;-52
2023/08/25 09:05:27;;;;;;;5.90;3.28;;;23.90;75.40;24.80;100101.00;;;;5014159;28;20241;-52
2023/08/25 09:08:03;;;;;;;3.85;3.20;;;24.00;75.40;24.80;100074.00;;;;4998650;28;20190;-52
2023/08/25 09:10:29;;;;;;;3.40;3.10;;;23.90;75.30;24.80;100048.00;;;;5031214;28;20240;-52
2023/08/25 09:12:56;;;;;;;3.63;2.72;;;23.90;75.30;24.80;100043.00;;;;5031117;28;20238;-52
2023/08/25 09:15:27;;;;;;;4.30;2.90;;;23.90;75.40;24.80;100029.00;;;;4997349;28;20199;-52
2023/08/25 09:18:02;;;;;;;4.25;2.97;;;23.90;75.30;24.80;100005.00;;;;5031037;28;20179;-53
2023/08/25 09:20:29;;;;;;;3.90;3.03;;;24.00;75.30;24.80;99988.00;;;;5013253;28;20691;-52
2023/08/25 09:22:56;;;;;;;4.85;3.25;;;23.90;75.20;24.70;100021.00;;;;5013721;28;20187;-52
2023/08/25 09:25:23;;;;;;;3.13;2.90;;;23.90;75.20;24.70;100042.00;;;;5031223;28;20187;-51
2023/08/25 09:27:59;;;;;;;4.13;2.80;;;23.90;75.10;24.70;100022.00;;;;5031290;28;20245;-52
2023/08/25 09:30:38;;;;;;;4.75;3.03;;;23.90;75.10;24.70;100031.00;;;;5030882;28;20257;-52
2023/08/25 09:33:06;;;;;;;3.60;2.90;;;23.90;75.10;24.70;100043.00;;;;5030841;28;20234;-52
2023/08/25 09:35:32;;;;;;;3.70;2.88;;;23.90;75.00;24.70;100045.00;;;;5013857;28;20267;-52
2023/08/25 09:37:57;;;;;;;3.03;2.75;;;23.90;75.00;24.80;100031.00;;;;5030416;28;20255;-52
2023/08/25 09:40:23;;;;;;;3.80;3.20;;;23.90;75.00;24.80;100038.00;;;;5030627;28;20615;-52
2023/08/25 09:42:49;;;;;;;3.63;2.90;;;24.00;75.10;24.80;100046.00;;;;5030681;28;20218;-52
2023/08/25 09:45:15;;;;;;;5.25;2.80;;;23.90;74.90;24.80;100055.00;;;;5031008;28;20454;-51
2023/08/25 09:47:41;;;;;;;4.95;3.22;;;23.90;75.00;24.80;100066.00;;;;5030316;28;20679;-52
2023/08/25 09:50:07;;;;;;;4.35;3.05;;;23.90;75.00;24.80;100083.00;;;;5030190;28;20210;-53
2023/08/25 09:52:36;;;;;;;3.13;2.83;;;23.90;75.00;24.80;100091.00;;;;5007637;28;20179;-51
2023/08/25 09:55:01;;;;;;;3.00;2.70;;;23.90;75.00;24.80;100078.00;;;;5039527;28;20653;-52
2023/08/25 09:57:27;;;;;;;3.38;2.80;;;23.90;74.90;24.80;100075.00;;;;5031015;28;20226;-51
2023/08/25 09:59:53;;;;;;;3.30;3.00;;;23.90;75.00;24.80;100084.00;;;;5012481;28;20199;-52
2023/08/25 10:02:19;;;;;;;3.13;2.80;;;23.90;74.90;24.80;100069.00;;;;5012684;28;20192;-53
2023/08/25 10:04:45;;;;;;;3.65;2.90;;;23.90;74.90;24.80;100095.00;;;;5012915;28;20182;-52
2023/08/25 10:07:10;;;;;;;3.10;2.67;;;23.90;74.90;24.80;100080.00;;;;5012460;28;20175;-52
2023/08/25 10:09:36;;;;;;;3.60;2.88;;;23.90;74.90;24.80;100109.00;;;;5017906;28;20198;-52
2023/08/25 10:12:04;;;;;;;3.95;2.95;;;23.90;74.80;24.80;100079.00;;;;5051428;28;20179;-52
2023/08/25 10:14:30;;;;;;;3.08;2.72;;;23.90;74.90;24.80;100104.00;;;;5013324;28;20225;-52
2023/08/25 10:16:55;;;;;;;2.70;2.50;;;23.90;74.90;24.80;100102.00;;;;5012519;28;20205;-52
2023/08/25 10:19:23;;;;;;;3.67;2.97;;;23.90;74.80;24.80;100085.00;;;;5004391;28;20195;-52
2023/08/25 10:21:50;;;;;;;2.90;2.60;;;23.90;74.80;24.80;100085.00;;;;5022000;28;20183;-52
2023/08/25 10:24:19;;;;;;;3.08;2.72;;;23.90;74.80;24.80;100091.00;;;;5012632;28;20198;-52
2023/08/25 10:26:45;;;;;;;3.17;2.88;;;23.90;75.60;24.80;100058.00;;;;5029883;28;20191;-52
2023/08/25 10:29:11;;;;;;;3.13;2.70;;;23.90;74.70;24.80;100101.00;;;;5012097;28;20205;-52
2023/08/25 10:31:51;;;;;;;2.95;2.65;;;23.90;74.80;24.80;100100.00;;;;5012404;28;20175;-52
2023/08/25 10:34:34;;;;;;;2.95;2.70;;;23.90;74.80;24.80;100140.00;;;;5012644;28;20234;-51
2023/08/25 10:37:13;;;;;;;2.85;2.65;;;23.90;74.80;24.80;100159.00;;;;5029521;28;20175;-52
2023/08/25 10:39:48;;;;;;;3.47;2.90;;;23.90;74.80;24.80;100143.00;;;;5029386;28;20194;-52
2023/08/25 10:42:26;;;;;;;3.70;2.80;;;23.90;74.70;24.70;100149.00;;;;5029420;28;20676;-52
2023/08/25 10:45:10;;;;;;;3.30;2.90;;;23.90;74.70;24.80;100177.00;;;;5029476;28;20278;-53
2023/08/25 10:47:46;;;;;;;2.83;2.63;;;23.90;74.70;24.80;100192.00;;;;5024271;28;20600;-51